Portada
METAR-TAF:

METAR-TAF

Aeroports :

Person County Airport

Roxboro, Carolina del Nord, Estats Units d'Amèrica

latitud: 36-17-06N, longitud: 078-59-03W, altitud: 186 m

Observació

L'informe es va fer fa 51 minuts, a les 13:40 UTC
Vent 5 kt del Nord
Temperatura 22°C
Humitat 53%
Pressió 1018 hPa
Visibilitat: 16.1 km
Cel clar

METAR: KTDF 211340Z AUTO 01005KT 10SM CLR 22/12 A3005 RMK AO2

Hora: 10:31 (14:31 UTC)


TAF: manca

Observacions i pronòstics meteorològics de més de 4000 aeroports (METAR i TAF).

Les estacions disponibles són els punts grocs i vermells al mapa.

Posi el ratolí al punt desitjat per veure el nom de l'estació.

Feu clic per veure les observacions i els pronòstics meteorològics.

Per canviar el mapa: feu clic els botons verds amb una creu de color negre per apropar; al botó verd amb un guió per allunyar la imatge; o en les fletxes verdes per a mapes adjacents.


METAR-TAF: